Down Up Stop Top
)

MTZ128
There are no active watches, warnings or advisories


Click here for the last 24 hour graph
Click here for the last 48 hour graph
Click here for the last 72 hour graph
Click here for the month to date graph

Weather report/warning/Metars

LOGAN INTERNATIONAL AIRPORT, MT, United States (KBIL) 45-49N 108-33W 1091M
Nov 12, 2019 - 06:53 PM EST / 2019.11.12 2353 UTC
Wind: from the WSW (240 degrees) at 15 MPH (13 KT):0
Visibility: 10 mile(s):0
Sky conditions: overcast
Temperature: 45.0 F (7.2 C)
Dew Point: 17.1 F (-8.3 C)
Relative Humidity: 32%
Pressure (altimeter): 29.84 in. Hg (1010 hPa)
Pressure tendency: 0.03 inches (1.0 hPa) lower than three hours ago
ob: KBIL 122353Z 24013KT 10SM BKN085 OVC120 07/M08 A2984 RMK AO2 SLP120 SHRA DSNT SW-SE T00721083 10078 20044 56010
cycle: 0



The data is logged at two minute intervals, but there is data recorded every minute.

Use the RELOAD facility on your browser to retrieve the latest data.

Click here for a daily update of the averages/extremes to date for the month
Created by "Weather Display" software version 10.37S at this start time/date 6:26:30 PM 3/10/2019